createdAt,value
2024-02-24T10:35:36.662Z,12.40
2024-02-24T10:38:34.579Z,12.60
2024-02-24T10:41:46.925Z,13.40
2024-02-24T10:44:54.608Z,13.00
2024-02-24T10:47:42.501Z,13.30
2024-02-24T10:50:13.278Z,13.80
2024-02-24T10:52:41.956Z,14.00
2024-02-24T10:55:10.120Z,14.10
2024-02-24T10:57:38.904Z,15.30
2024-02-24T11:00:26.652Z,16.00
2024-02-24T11:03:14.055Z,17.20
2024-02-24T11:06:03.676Z,18.20
2024-02-24T11:08:58.672Z,17.00
2024-02-24T11:12:06.200Z,18.60
2024-02-24T11:14:56.192Z,19.40
2024-02-24T11:17:52.061Z,17.90
2024-02-24T11:20:55.363Z,14.90
2024-02-24T11:24:06.395Z,14.00
2024-02-24T11:27:13.636Z,17.00
2024-02-24T11:30:57.775Z,15.60
2024-02-24T11:34:04.937Z,16.10
2024-02-24T11:37:13.043Z,15.00
2024-02-24T11:40:20.851Z,14.30
2024-02-24T11:43:08.609Z,14.00
2024-02-24T11:45:36.922Z,13.90
2024-02-24T11:48:04.560Z,14.00
2024-02-24T11:50:32.078Z,14.20
2024-02-24T11:52:59.458Z,14.00
2024-02-24T11:55:26.779Z,13.90
2024-02-24T11:57:54.553Z,14.30
2024-02-24T12:00:21.925Z,14.00
2024-02-24T12:02:49.561Z,13.80
2024-02-24T12:05:17.482Z,14.20
2024-02-24T12:07:45.653Z,14.30
2024-02-24T12:10:12.934Z,14.40
2024-02-24T12:12:40.711Z,14.60
2024-02-24T12:15:08.824Z,14.30
2024-02-24T12:17:36.402Z,14.00
2024-02-24T12:20:04.434Z,14.50
2024-02-24T12:22:33.393Z,14.60
2024-02-24T12:25:34.289Z,14.60
2024-02-24T12:28:41.635Z,14.70
2024-02-24T12:31:48.975Z,14.90
2024-02-24T12:34:37.439Z,15.60
2024-02-24T12:37:05.071Z,16.60
2024-02-24T12:39:32.503Z,17.40
2024-02-24T12:41:59.960Z,19.00
2024-02-24T12:44:27.877Z,19.50
2024-02-24T12:46:55.490Z,18.80
2024-02-24T12:49:23.172Z,18.80
2024-02-24T12:51:53.638Z,18.70
2024-02-24T12:54:20.968Z,19.10
2024-02-24T12:56:48.545Z,20.40
2024-02-24T12:59:15.976Z,20.50
2024-02-24T13:01:43.336Z,20.20
2024-02-24T13:04:11.571Z,21.10
2024-02-24T13:06:39.907Z,21.30
2024-02-24T13:09:07.400Z,21.20
2024-02-24T13:11:35.037Z,21.40
2024-02-24T13:14:02.578Z,21.20
2024-02-24T13:16:30.029Z,20.50
2024-02-24T13:18:58.020Z,21.00
2024-02-24T13:21:25.358Z,20.80
2024-02-24T13:23:54.531Z,19.90
2024-02-24T13:26:22.081Z,19.00
2024-02-24T13:28:49.427Z,18.50
2024-02-24T13:31:16.783Z,17.80
2024-02-24T13:33:44.471Z,18.90
2024-02-24T13:36:12.133Z,18.70
2024-02-24T13:38:40.214Z,16.50
2024-02-24T13:41:08.301Z,15.10
2024-02-24T13:43:35.622Z,15.00
2024-02-24T13:46:03.091Z,15.40
2024-02-24T13:48:31.323Z,15.00
2024-02-24T13:50:58.647Z,14.30
2024-02-24T13:53:26.182Z,13.70
2024-02-24T13:55:53.688Z,13.50
2024-02-24T13:58:20.955Z,13.50
2024-02-24T14:00:48.209Z,13.30
2024-02-24T14:03:15.812Z,13.40
2024-02-24T14:05:43.132Z,13.20
2024-02-24T14:08:12.668Z,13.20
2024-02-24T14:11:10.645Z,13.10
2024-02-24T14:13:38.678Z,12.70
2024-02-24T14:16:06.437Z,12.60
2024-02-24T14:18:34.102Z,12.50
2024-02-24T14:21:01.509Z,12.70
2024-02-24T14:23:28.971Z,12.70
2024-02-24T14:25:56.412Z,12.40
2024-02-24T14:28:23.672Z,12.30
2024-02-24T14:30:53.862Z,12.30
2024-02-24T14:33:23.408Z,12.40
2024-02-24T14:35:50.922Z,12.10
2024-02-24T14:38:18.518Z,11.80
2024-02-24T14:40:50.582Z,11.90
2024-02-24T14:43:17.827Z,11.60
2024-02-24T14:45:45.181Z,11.70
2024-02-24T14:48:13.025Z,11.70
2024-02-24T14:50:41.901Z,11.40
2024-02-24T14:53:09.188Z,11.50
2024-02-24T14:55:37.250Z,11.50
2024-02-24T14:58:04.728Z,11.50
2024-02-24T15:00:32.010Z,11.40
2024-02-24T15:03:09.322Z,11.30
2024-02-24T15:05:38.592Z,11.30
2024-02-24T15:08:06.692Z,11.20
2024-02-24T15:10:33.964Z,11.10
2024-02-24T15:13:01.256Z,11.00
2024-02-24T15:15:29.012Z,10.80
2024-02-24T15:17:58.943Z,10.70
2024-02-24T15:20:26.732Z,10.80
2024-02-24T15:22:54.450Z,10.80
2024-02-24T15:25:22.512Z,10.70
2024-02-24T15:27:49.815Z,10.70
2024-02-24T15:30:17.461Z,10.90
2024-02-24T15:32:44.798Z,10.90
2024-02-24T15:35:12.178Z,10.90
2024-02-24T15:37:39.873Z,10.80
2024-02-24T15:40:09.199Z,10.70
2024-02-24T15:42:36.790Z,10.70
2024-02-24T15:45:04.845Z,10.50
2024-02-24T15:47:32.357Z,10.40
2024-02-24T15:49:59.698Z,10.50
2024-02-24T15:52:27.819Z,10.50
2024-02-24T15:54:55.137Z,10.40
2024-02-24T15:57:22.486Z,10.40
2024-02-24T15:59:49.783Z,10.30
2024-02-24T16:02:17.092Z,10.30
2024-02-24T16:04:44.544Z,10.30
2024-02-24T16:07:12.104Z,10.20
2024-02-24T16:09:39.472Z,10.20
2024-02-24T16:12:07.362Z,10.30
2024-02-24T16:14:34.924Z,10.20
2024-02-24T16:17:04.724Z,10.20
2024-02-24T16:19:32.140Z,10.10
2024-02-24T16:21:59.750Z,10.00
2024-02-24T16:24:29.375Z,9.90
2024-02-24T16:26:58.235Z,9.90
2024-02-24T16:29:29.922Z,9.90
2024-02-24T16:31:57.124Z,9.90
2024-02-24T16:34:25.041Z,9.90
2024-02-24T16:36:52.621Z,9.90
2024-02-24T16:39:21.199Z,9.90
2024-02-24T16:41:48.522Z,9.90
2024-02-24T16:44:16.128Z,9.90
2024-02-24T16:46:47.862Z,9.90
2024-02-24T16:49:17.981Z,9.90
2024-02-24T16:51:46.925Z,9.90
2024-02-24T16:54:15.164Z,9.80
2024-02-24T16:56:42.471Z,9.80
2024-02-24T16:59:10.249Z,9.70
2024-02-24T17:01:37.467Z,9.60
2024-02-24T17:04:04.940Z,9.60
2024-02-24T17:06:32.547Z,9.50
2024-02-24T17:08:59.865Z,9.40
2024-02-24T17:11:29.314Z,9.40
2024-02-24T17:13:58.728Z,9.30
2024-02-24T17:16:26.269Z,9.30
2024-02-24T17:18:54.108Z,9.20
2024-02-24T17:21:22.257Z,9.10
2024-02-24T17:23:49.696Z,9.10
2024-02-24T17:26:18.099Z,9.10
2024-02-24T17:28:49.450Z,9.10
2024-02-24T17:31:17.188Z,9.00
2024-02-24T17:33:45.532Z,8.90
2024-02-24T17:36:14.030Z,8.70
2024-02-24T17:38:42.096Z,8.50
2024-02-24T17:41:09.426Z,8.20
2024-02-24T17:43:36.970Z,8.00
2024-02-24T17:46:04.411Z,7.90
2024-02-24T17:48:31.825Z,7.90
2024-02-24T17:51:00.230Z,7.90
2024-02-24T17:53:27.674Z,7.80
2024-02-24T17:55:55.137Z,7.60
2024-02-24T17:58:32.245Z,7.60
2024-02-24T18:01:08.281Z,7.50
2024-02-24T18:03:36.233Z,7.50
2024-02-24T18:06:03.739Z,7.50
2024-02-24T18:08:31.189Z,7.40
2024-02-24T18:10:58.681Z,7.40
2024-02-24T18:13:25.912Z,7.30
2024-02-24T18:15:53.282Z,7.40
2024-02-24T18:18:20.942Z,7.50
2024-02-24T18:20:48.270Z,7.50
2024-02-24T18:23:15.576Z,7.40
2024-02-24T18:25:43.028Z,7.40
2024-02-24T18:28:10.504Z,7.40
2024-02-24T18:30:37.723Z,7.40
2024-02-24T18:33:05.986Z,7.30
2024-02-24T18:35:33.377Z,7.00
2024-02-24T18:38:00.670Z,7.00
2024-02-24T18:40:28.073Z,6.80
2024-02-24T18:42:55.755Z,6.90
2024-02-24T18:45:23.061Z,6.80
2024-02-24T18:47:50.681Z,6.80
2024-02-24T18:50:18.071Z,6.70
2024-02-24T18:52:45.631Z,6.70
2024-02-24T18:55:13.145Z,6.80
2024-02-24T18:57:40.719Z,6.70
2024-02-24T19:00:08.633Z,6.80
2024-02-24T19:02:40.400Z,6.90
2024-02-24T19:05:08.196Z,6.80
2024-02-24T19:07:35.444Z,6.70
2024-02-24T19:10:03.055Z,6.70
2024-02-24T19:12:30.378Z,6.70
2024-02-24T19:14:58.564Z,6.60
2024-02-24T19:17:26.389Z,6.60
2024-02-24T19:19:54.941Z,6.40
2024-02-24T19:22:22.331Z,6.40
2024-02-24T19:24:50.173Z,6.30
2024-02-24T19:27:17.481Z,6.40
2024-02-24T19:29:45.689Z,6.40
2024-02-24T19:32:13.881Z,6.30
2024-02-24T19:34:41.479Z,6.20
2024-02-24T19:37:11.953Z,6.30
2024-02-24T19:39:40.260Z,6.60
2024-02-24T19:42:07.668Z,7.00
2024-02-24T19:44:35.538Z,7.30
2024-02-24T19:47:06.045Z,7.50
2024-02-24T19:49:33.548Z,7.50
2024-02-24T19:52:01.601Z,7.50
2024-02-24T19:54:29.453Z,7.40
2024-02-24T19:56:56.855Z,7.40
2024-02-24T19:59:24.113Z,7.50
2024-02-24T20:01:51.990Z,7.60
2024-02-24T20:04:19.762Z,7.70
2024-02-24T20:06:47.229Z,7.70
2024-02-24T20:09:14.928Z,7.70
2024-02-24T20:11:42.246Z,7.60
2024-02-24T20:14:13.873Z,7.60
2024-02-24T20:16:44.412Z,7.70
2024-02-24T20:19:11.894Z,7.60
2024-02-24T20:21:39.424Z,7.60
2024-02-24T20:24:07.789Z,7.60
2024-02-24T20:26:35.615Z,7.50
2024-02-24T20:29:04.393Z,7.50
2024-02-24T20:31:32.444Z,7.50
2024-02-24T20:34:06.845Z,7.50
2024-02-24T20:36:36.362Z,7.50
2024-02-24T20:39:03.816Z,7.40
2024-02-24T20:41:31.433Z,7.40
2024-02-24T20:44:01.226Z,7.30
2024-02-24T20:46:29.087Z,7.30
2024-02-24T20:48:56.665Z,7.20
2024-02-24T20:51:24.080Z,7.00
2024-02-24T20:53:54.757Z,6.90
2024-02-24T20:56:22.068Z,6.50
2024-02-24T20:58:50.093Z,6.50
2024-02-24T21:01:17.846Z,6.40
2024-02-24T21:03:45.449Z,6.40
2024-02-24T21:06:16.310Z,6.10
2024-02-24T21:08:44.485Z,5.90
2024-02-24T21:11:11.807Z,5.70
2024-02-24T21:13:41.442Z,5.70
2024-02-24T21:16:08.805Z,5.70
2024-02-24T21:18:36.470Z,5.80
2024-02-24T21:21:04.578Z,5.70
2024-02-24T21:23:32.285Z,5.70
2024-02-24T21:26:11.062Z,5.60
2024-02-24T21:28:38.319Z,5.60
2024-02-24T21:31:05.629Z,5.40
2024-02-24T21:33:33.348Z,5.30
2024-02-24T21:36:00.911Z,5.50
2024-02-24T21:38:30.463Z,5.50
2024-02-24T21:40:59.198Z,5.60
2024-02-24T21:43:26.508Z,5.60
2024-02-24T21:45:53.799Z,5.60
2024-02-24T21:48:22.797Z,5.50
2024-02-24T21:50:51.967Z,5.50
2024-02-24T21:53:19.356Z,5.60
2024-02-24T21:55:47.283Z,5.60
2024-02-24T21:58:14.588Z,5.60
2024-02-24T22:00:41.863Z,5.50
2024-02-24T22:03:09.401Z,5.40
2024-02-24T22:05:36.899Z,5.40
2024-02-24T22:08:04.502Z,5.40
2024-02-24T22:10:31.966Z,5.30
2024-02-24T22:12:59.334Z,5.30
2024-02-24T22:15:26.734Z,5.30
2024-02-24T22:17:54.404Z,5.10
2024-02-24T22:20:21.879Z,5.10
2024-02-24T22:22:49.221Z,5.00
2024-02-24T22:25:17.005Z,5.10
2024-02-24T22:27:44.473Z,5.10
2024-02-24T22:30:16.442Z,5.00
2024-02-24T22:32:47.153Z,5.10
2024-02-24T22:35:15.567Z,5.00
2024-02-24T22:37:44.144Z,5.00
2024-02-24T22:40:12.134Z,4.90
2024-02-24T22:42:40.125Z,4.90
2024-02-24T22:45:08.438Z,4.70
2024-02-24T22:47:36.109Z,4.70
2024-02-24T22:50:03.983Z,4.80
2024-02-24T22:52:31.305Z,4.80
2024-02-24T22:54:59.241Z,4.80
2024-02-24T22:57:26.499Z,4.70
2024-02-24T22:59:53.812Z,4.60
2024-02-24T23:02:21.347Z,4.60
2024-02-24T23:04:48.662Z,4.60
2024-02-24T23:07:16.066Z,4.50
2024-02-24T23:09:43.592Z,4.50
2024-02-24T23:12:11.072Z,4.50
2024-02-24T23:14:38.621Z,4.40
2024-02-24T23:17:06.245Z,4.20
2024-02-24T23:19:33.653Z,4.00
2024-02-24T23:22:00.981Z,4.00
2024-02-24T23:24:28.519Z,4.00
2024-02-24T23:26:59.353Z,4.00
2024-02-24T23:29:27.924Z,4.00
2024-02-24T23:31:55.438Z,4.10
2024-02-24T23:34:23.301Z,4.00
2024-02-24T23:36:50.601Z,4.10
2024-02-24T23:39:20.182Z,4.10
2024-02-24T23:41:47.596Z,4.10
2024-02-24T23:44:15.859Z,4.10
2024-02-24T23:46:43.613Z,4.10
2024-02-24T23:49:11.130Z,4.10
2024-02-24T23:51:40.141Z,4.10
2024-02-24T23:54:07.474Z,4.10
2024-02-24T23:56:36.034Z,4.20
2024-02-24T23:59:04.672Z,4.20
